createdAt,value
2023-07-10T00:01:02.128Z,4.30
2023-07-10T00:03:31.930Z,4.07
2023-07-10T00:05:59.919Z,3.87
2023-07-10T00:08:27.525Z,4.33
2023-07-10T00:10:55.007Z,4.40
2023-07-10T00:13:22.960Z,4.10
2023-07-10T00:15:52.242Z,4.87
2023-07-10T00:18:23.863Z,4.20
2023-07-10T00:20:51.180Z,3.70
2023-07-10T00:23:19.078Z,4.13
2023-07-10T00:25:46.376Z,4.60
2023-07-10T00:28:17.262Z,4.47
2023-07-10T00:30:46.931Z,4.23
2023-07-10T00:33:16.720Z,4.77
2023-07-10T00:35:45.979Z,4.43
2023-07-10T00:38:19.724Z,4.67
2023-07-10T00:40:48.328Z,3.83
2023-07-10T00:43:29.372Z,3.97
2023-07-10T00:46:10.194Z,4.37
2023-07-10T00:48:43.766Z,4.43
2023-07-10T00:51:27.933Z,4.40
2023-07-10T00:53:57.711Z,4.60
2023-07-10T00:56:34.681Z,5.27
2023-07-10T00:59:22.592Z,4.97
2023-07-10T01:02:20.045Z,5.53
2023-07-10T01:04:55.412Z,5.40
2023-07-10T01:07:27.401Z,5.60
2023-07-10T01:10:01.585Z,5.03
2023-07-10T01:12:31.680Z,5.60
2023-07-10T01:14:59.002Z,6.03
2023-07-10T01:17:29.067Z,6.63
2023-07-10T01:20:01.077Z,6.87
2023-07-10T01:22:29.906Z,6.13
2023-07-10T01:24:57.160Z,6.33
2023-07-10T01:27:24.758Z,5.53
2023-07-10T01:30:01.804Z,6.07
2023-07-10T01:32:30.213Z,7.07
2023-07-10T01:35:04.727Z,7.43
2023-07-10T01:37:32.987Z,7.13
2023-07-10T01:40:00.045Z,7.40
2023-07-10T01:42:27.092Z,6.47
2023-07-10T01:44:54.162Z,5.70
2023-07-10T01:47:21.735Z,6.60
2023-07-10T01:49:54.118Z,5.80
2023-07-10T01:52:24.002Z,6.83
2023-07-10T01:54:54.963Z,8.27
2023-07-10T01:57:25.061Z,9.07
2023-07-10T01:59:52.684Z,7.20
2023-07-10T02:02:19.972Z,7.20
2023-07-10T02:04:46.969Z,7.13
2023-07-10T02:07:13.888Z,8.77
2023-07-10T02:09:40.877Z,9.57
2023-07-10T02:12:10.561Z,8.27
2023-07-10T02:14:37.479Z,9.47
2023-07-10T02:17:05.143Z,9.13
2023-07-10T02:19:32.251Z,10.47
2023-07-10T02:21:59.169Z,11.03
2023-07-10T02:24:26.094Z,10.60
2023-07-10T02:26:53.108Z,9.50
2023-07-10T02:29:21.533Z,8.17
2023-07-10T02:31:51.865Z,11.10
2023-07-10T02:34:19.050Z,11.83
2023-07-10T02:36:46.047Z,11.40
2023-07-10T02:39:13.116Z,10.47
2023-07-10T02:41:40.089Z,8.00
2023-07-10T02:44:07.009Z,10.67
2023-07-10T02:46:35.345Z,9.07
2023-07-10T02:49:02.323Z,12.07
2023-07-10T02:51:29.437Z,10.17
2023-07-10T02:53:56.450Z,11.03
2023-07-10T02:56:23.421Z,12.27
2023-07-10T02:58:51.420Z,13.57
2023-07-10T03:01:18.456Z,15.00
2023-07-10T03:03:47.964Z,15.40
2023-07-10T03:06:15.508Z,15.40
2023-07-10T03:08:42.415Z,13.90
2023-07-10T03:11:16.435Z,14.03
2023-07-10T03:13:43.899Z,13.40
2023-07-10T03:16:14.050Z,14.83
2023-07-10T03:18:41.842Z,14.93
2023-07-10T03:21:11.461Z,15.10
2023-07-10T03:23:38.409Z,14.10
2023-07-10T03:26:05.961Z,14.80
2023-07-10T03:28:36.942Z,14.13
2023-07-10T03:31:04.556Z,13.50
2023-07-10T03:33:31.556Z,15.47
2023-07-10T03:35:59.755Z,13.13
2023-07-10T03:38:28.338Z,13.03
2023-07-10T03:40:58.136Z,13.43
2023-07-10T03:43:26.568Z,14.07
2023-07-10T03:45:56.288Z,11.90
2023-07-10T03:48:23.870Z,13.10
2023-07-10T03:50:50.901Z,13.40
2023-07-10T03:53:17.835Z,14.30
2023-07-10T03:55:54.970Z,16.70
2023-07-10T03:58:25.501Z,16.73
2023-07-10T04:00:52.632Z,19.20
2023-07-10T04:03:23.718Z,18.70
2023-07-10T04:05:54.034Z,19.03
2023-07-10T04:08:22.529Z,19.20
2023-07-10T04:10:52.787Z,18.30
2023-07-10T04:13:20.443Z,20.77
2023-07-10T04:15:58.177Z,18.30
2023-07-10T04:18:27.663Z,21.17
2023-07-10T04:20:54.647Z,20.23
2023-07-10T04:23:21.703Z,23.17
2023-07-10T04:25:50.903Z,21.10
2023-07-10T04:28:18.000Z,17.97
2023-07-10T04:30:46.659Z,15.57
2023-07-10T04:33:15.171Z,12.87
2023-07-10T04:35:42.369Z,10.60
2023-07-10T04:38:09.718Z,12.27
2023-07-10T04:40:37.180Z,11.53
2023-07-10T04:43:05.923Z,11.67
2023-07-10T04:45:32.960Z,9.37
2023-07-10T04:48:00.002Z,9.43
2023-07-10T04:50:27.074Z,9.53
2023-07-10T04:52:54.018Z,9.00
2023-07-10T04:55:21.075Z,9.03
2023-07-10T04:57:48.039Z,7.77
2023-07-10T05:00:18.568Z,9.83
2023-07-10T05:02:45.658Z,9.23
2023-07-10T05:05:12.617Z,10.60
2023-07-10T05:07:39.517Z,10.33
2023-07-10T05:10:07.257Z,13.27
2023-07-10T05:12:34.608Z,12.33
2023-07-10T05:15:01.564Z,10.17
2023-07-10T05:17:29.837Z,10.23
2023-07-10T05:19:56.871Z,10.77
2023-07-10T05:22:23.869Z,10.70
2023-07-10T05:24:50.841Z,9.57
2023-07-10T05:27:17.748Z,10.97
2023-07-10T05:29:44.973Z,9.73
2023-07-10T05:32:11.988Z,9.87
2023-07-10T05:34:40.252Z,8.23
2023-07-10T05:37:07.198Z,10.37
2023-07-10T05:39:34.132Z,12.97
2023-07-10T05:42:01.131Z,13.03
2023-07-10T05:44:28.109Z,12.53
2023-07-10T05:46:57.198Z,13.83
2023-07-10T05:49:25.087Z,17.30
2023-07-10T05:51:53.729Z,17.13
2023-07-10T05:54:21.083Z,16.27
2023-07-10T05:56:48.620Z,15.90
2023-07-10T05:59:16.484Z,14.83
2023-07-10T06:01:43.487Z,13.63
2023-07-10T06:04:10.527Z,16.13
2023-07-10T06:06:37.548Z,19.27
2023-07-10T06:09:05.776Z,17.27
2023-07-10T06:11:34.130Z,15.83
2023-07-10T06:14:01.200Z,14.00
2023-07-10T06:16:29.141Z,16.77
2023-07-10T06:18:56.231Z,13.50
2023-07-10T06:21:23.237Z,13.07
2023-07-10T06:23:50.363Z,12.97
2023-07-10T06:26:18.681Z,13.80
2023-07-10T06:28:45.595Z,13.20
2023-07-10T06:31:12.999Z,11.30
2023-07-10T06:33:40.581Z,9.53
2023-07-10T06:36:08.346Z,9.87
2023-07-10T06:38:35.905Z,9.73
2023-07-10T06:41:06.764Z,10.33
2023-07-10T06:43:35.810Z,8.63
2023-07-10T06:46:03.080Z,8.90
2023-07-10T06:48:30.136Z,9.23
2023-07-10T06:50:57.576Z,9.70
2023-07-10T06:53:27.766Z,8.80
2023-07-10T06:55:58.181Z,9.73
2023-07-10T06:58:25.797Z,8.47
2023-07-10T07:00:55.292Z,8.13
2023-07-10T07:03:22.618Z,8.13
2023-07-10T07:05:49.942Z,7.17
2023-07-10T07:08:18.729Z,6.67
2023-07-10T07:10:47.743Z,6.70
2023-07-10T07:13:15.197Z,6.17
2023-07-10T07:15:42.402Z,6.20
2023-07-10T07:18:10.748Z,5.63
2023-07-10T07:20:39.502Z,6.03
2023-07-10T07:23:06.421Z,5.90
2023-07-10T07:25:33.483Z,6.03
2023-07-10T07:28:00.579Z,6.40
2023-07-10T07:30:29.166Z,5.60
2023-07-10T07:32:57.208Z,5.27
2023-07-10T07:35:25.540Z,6.53
2023-07-10T07:37:52.479Z,7.20
2023-07-10T07:40:19.496Z,6.50
2023-07-10T07:42:48.005Z,5.53
2023-07-10T07:45:16.529Z,5.53
2023-07-10T07:47:45.326Z,5.10
2023-07-10T07:50:12.890Z,5.30
2023-07-10T07:52:41.254Z,5.43
2023-07-10T07:55:10.009Z,6.10
2023-07-10T07:57:39.430Z,4.77
2023-07-10T08:00:09.231Z,4.10
2023-07-10T08:02:36.237Z,4.03
2023-07-10T08:05:04.490Z,3.50
2023-07-10T08:07:34.285Z,4.03
2023-07-10T08:10:04.968Z,4.40
2023-07-10T08:12:31.992Z,3.90
2023-07-10T08:14:59.240Z,3.97
2023-07-10T08:17:26.135Z,4.13
2023-07-10T08:19:53.650Z,4.40
2023-07-10T08:22:20.567Z,4.23
2023-07-10T08:24:47.497Z,3.50
2023-07-10T08:27:15.946Z,4.30
2023-07-10T08:29:43.040Z,3.67
2023-07-10T08:32:10.201Z,4.50
2023-07-10T08:34:39.735Z,3.00
2023-07-10T08:37:06.993Z,3.33
2023-07-10T08:39:33.966Z,3.63
2023-07-10T08:42:17.853Z,2.97
2023-07-10T08:44:50.501Z,3.10
2023-07-10T08:47:24.226Z,3.30
2023-07-10T08:50:01.410Z,3.07
2023-07-10T08:52:38.436Z,3.80
2023-07-10T08:55:12.972Z,3.90
2023-07-10T08:57:49.252Z,3.27
2023-07-10T09:00:17.902Z,3.07
2023-07-10T09:02:51.203Z,2.60
2023-07-10T09:05:24.158Z,3.20
2023-07-10T09:07:52.168Z,2.90
2023-07-10T09:10:23.806Z,3.00
2023-07-10T09:12:54.445Z,3.13
2023-07-10T09:15:29.751Z,4.17
2023-07-10T09:18:06.928Z,3.90
2023-07-10T09:20:37.465Z,4.13
2023-07-10T09:23:22.434Z,3.40
2023-07-10T09:25:56.931Z,3.43
2023-07-10T09:28:25.959Z,2.73
2023-07-10T09:31:21.295Z,2.50
2023-07-10T09:33:59.314Z,2.63
2023-07-10T09:36:27.693Z,2.60
2023-07-10T09:38:57.966Z,2.63
2023-07-10T09:41:28.496Z,2.30
2023-07-10T09:44:12.020Z,2.10
2023-07-10T09:46:40.479Z,2.50
2023-07-10T09:49:15.517Z,2.40
2023-07-10T09:51:57.227Z,2.90
2023-07-10T09:54:25.492Z,2.40
2023-07-10T09:56:55.052Z,2.13
2023-07-10T09:59:27.028Z,2.80
2023-07-10T10:01:56.654Z,2.28
2023-07-10T10:04:27.732Z,2.07
2023-07-10T10:07:03.475Z,2.67
2023-07-10T10:09:31.498Z,2.43
2023-07-10T10:12:06.481Z,2.43
2023-07-10T10:14:45.825Z,2.07
2023-07-10T10:17:21.748Z,1.70
2023-07-10T10:19:56.557Z,2.43
2023-07-10T10:22:33.331Z,2.50
2023-07-10T10:25:01.090Z,2.80
2023-07-10T10:27:39.423Z,2.33
2023-07-10T10:30:27.393Z,2.00
2023-07-10T10:33:14.297Z,2.83
2023-07-10T10:35:58.573Z,2.42
2023-07-10T10:38:41.089Z,2.00
2023-07-10T10:41:27.613Z,2.58
2023-07-10T10:44:06.099Z,2.22
2023-07-10T10:46:53.178Z,1.80
2023-07-10T10:49:42.229Z,2.85
2023-07-10T10:52:25.593Z,2.35
2023-07-10T10:55:17.668Z,2.10
2023-07-10T10:57:58.580Z,2.27
2023-07-10T11:00:51.359Z,1.80
2023-07-10T11:03:28.357Z,2.30
2023-07-10T11:06:18.024Z,2.10
2023-07-10T11:08:51.659Z,2.27
2023-07-10T11:11:27.896Z,2.67
2023-07-10T11:14:05.205Z,2.30
2023-07-10T11:16:36.613Z,2.30
2023-07-10T11:19:05.613Z,1.93
2023-07-10T11:21:34.973Z,3.60
2023-07-10T11:24:17.720Z,2.20
2023-07-10T11:26:52.779Z,2.30
2023-07-10T11:29:30.100Z,2.93
2023-07-10T11:32:15.933Z,2.67
2023-07-10T11:35:21.312Z,2.83
2023-07-10T11:38:22.775Z,2.10
2023-07-10T11:40:53.091Z,2.17
2023-07-10T11:44:13.322Z,2.13
2023-07-10T11:47:00.864Z,2.40
2023-07-10T11:49:44.880Z,2.50
2023-07-10T11:52:28.065Z,2.63
2023-07-10T11:55:15.292Z,2.87
2023-07-10T11:57:42.728Z,2.53
2023-07-10T12:00:27.772Z,3.20
2023-07-10T12:03:00.788Z,1.90
2023-07-10T12:05:37.006Z,2.33
2023-07-10T12:08:13.003Z,2.60
2023-07-10T12:10:46.619Z,3.33
2023-07-10T12:13:19.613Z,3.20
2023-07-10T12:15:48.721Z,2.80
2023-07-10T12:18:20.653Z,2.50
2023-07-10T12:20:51.620Z,3.10
2023-07-10T12:23:19.773Z,2.40
2023-07-10T12:25:54.413Z,2.43
2023-07-10T12:28:28.533Z,2.87
2023-07-10T12:30:59.187Z,2.40
2023-07-10T12:33:42.337Z,2.33
2023-07-10T12:36:24.556Z,2.73
2023-07-10T12:38:53.989Z,2.77
2023-07-10T12:41:23.492Z,2.90
2023-07-10T12:43:54.349Z,2.70
2023-07-10T12:46:25.773Z,3.53
2023-07-10T12:49:00.210Z,3.60
2023-07-10T12:51:31.864Z,2.70
2023-07-10T12:54:01.668Z,3.03
2023-07-10T12:56:34.875Z,2.70
2023-07-10T12:59:18.200Z,2.57
2023-07-10T13:01:52.659Z,2.47
2023-07-10T13:04:24.866Z,2.10
2023-07-10T13:07:29.358Z,1.83
2023-07-10T13:10:01.449Z,2.17
2023-07-10T13:12:33.439Z,1.97
2023-07-10T13:15:03.871Z,2.03
2023-07-10T13:17:37.685Z,2.10
2023-07-10T13:20:20.822Z,2.23
2023-07-10T13:22:47.967Z,2.37
2023-07-10T13:25:15.190Z,2.33
2023-07-10T13:27:43.580Z,2.30
2023-07-10T13:30:17.977Z,2.43
2023-07-10T13:32:45.054Z,2.77
2023-07-10T13:35:12.387Z,2.30
2023-07-10T13:37:39.809Z,3.83
2023-07-10T13:40:12.868Z,2.73
2023-07-10T13:42:39.919Z,2.53
2023-07-10T13:45:10.098Z,1.87
2023-07-10T13:47:37.136Z,2.70
2023-07-10T13:50:05.117Z,2.47
2023-07-10T13:52:32.305Z,2.17
2023-07-10T13:54:59.263Z,2.20
2023-07-10T13:57:32.965Z,1.73
2023-07-10T14:00:02.369Z,2.37
2023-07-10T14:02:36.620Z,2.27
2023-07-10T14:05:08.450Z,2.50
2023-07-10T14:07:36.843Z,2.30
2023-07-10T14:10:05.843Z,1.80
2023-07-10T14:12:35.805Z,2.17
2023-07-10T14:15:03.600Z,2.27
2023-07-10T14:17:34.270Z,1.90
2023-07-10T14:20:02.427Z,2.47
2023-07-10T14:22:33.281Z,3.03
2023-07-10T14:25:00.276Z,1.97
2023-07-10T14:27:28.784Z,2.50
2023-07-10T14:29:58.947Z,2.27
2023-07-10T14:32:28.012Z,2.50
2023-07-10T14:34:56.803Z,2.60
2023-07-10T14:37:27.867Z,2.20
2023-07-10T14:39:55.213Z,1.97
2023-07-10T14:42:27.281Z,2.00
2023-07-10T14:44:54.791Z,2.33
2023-07-10T14:47:32.092Z,2.10
2023-07-10T14:50:02.203Z,2.00
2023-07-10T14:52:34.399Z,2.37
2023-07-10T14:55:05.772Z,2.27
2023-07-10T14:57:36.153Z,2.87
2023-07-10T15:00:13.666Z,3.63
2023-07-10T15:02:40.632Z,3.80
2023-07-10T15:05:09.356Z,3.13
2023-07-10T15:07:39.124Z,3.33
2023-07-10T15:10:25.954Z,3.80
2023-07-10T15:12:56.415Z,3.27
2023-07-10T15:15:32.342Z,4.00
2023-07-10T15:17:59.810Z,3.03
2023-07-10T15:20:28.654Z,2.67
2023-07-10T15:22:55.799Z,2.37
2023-07-10T15:25:26.391Z,4.03
2023-07-10T15:27:54.358Z,4.43
2023-07-10T15:30:25.127Z,5.40
2023-07-10T15:32:52.690Z,5.30
2023-07-10T15:35:22.684Z,3.80
2023-07-10T15:37:51.052Z,2.80
2023-07-10T15:40:22.115Z,2.90
2023-07-10T15:42:53.711Z,3.30
2023-07-10T15:45:22.062Z,2.60
2023-07-10T15:47:57.250Z,3.40
2023-07-10T15:50:27.006Z,3.10
2023-07-10T15:52:55.724Z,3.13
2023-07-10T15:55:28.903Z,2.73
2023-07-10T15:57:57.289Z,4.57
2023-07-10T16:00:30.266Z,2.33
2023-07-10T16:02:57.270Z,2.77
2023-07-10T16:05:28.619Z,4.13
2023-07-10T16:07:58.822Z,3.10
2023-07-10T16:10:27.818Z,2.70
2023-07-10T16:12:56.851Z,2.57
2023-07-10T16:15:27.119Z,3.80
2023-07-10T16:17:57.235Z,3.27
2023-07-10T16:20:28.122Z,3.10
2023-07-10T16:23:05.204Z,2.83
2023-07-10T16:25:32.874Z,2.10
2023-07-10T16:27:59.776Z,3.07
2023-07-10T16:30:27.256Z,2.70
2023-07-10T16:32:54.233Z,2.70
2023-07-10T16:35:24.357Z,2.53
2023-07-10T16:37:53.089Z,2.20
2023-07-10T16:40:25.537Z,2.40
2023-07-10T16:42:56.835Z,2.17
2023-07-10T16:45:27.932Z,2.00
2023-07-10T16:47:55.659Z,2.60
2023-07-10T16:50:24.750Z,2.33
2023-07-10T16:52:52.411Z,2.70
2023-07-10T16:55:26.053Z,2.67
2023-07-10T16:57:55.497Z,3.65
2023-07-10T17:00:31.713Z,3.05
2023-07-10T17:03:01.188Z,1.90
2023-07-10T17:05:28.328Z,2.50
2023-07-10T17:07:59.762Z,2.23
2023-07-10T17:10:29.019Z,1.90
2023-07-10T17:12:55.985Z,2.47
2023-07-10T17:15:23.409Z,2.23
2023-07-10T17:17:50.376Z,2.65
2023-07-10T17:20:19.461Z,2.57
2023-07-10T17:22:46.785Z,2.40
2023-07-10T17:25:17.212Z,2.03
2023-07-10T17:27:46.505Z,2.07
2023-07-10T17:30:15.583Z,2.23
2023-07-10T17:32:43.370Z,2.40
2023-07-10T17:35:19.386Z,2.40
2023-07-10T17:37:50.284Z,2.13
2023-07-10T17:40:18.171Z,2.13
2023-07-10T17:42:48.453Z,2.10
2023-07-10T17:45:19.590Z,2.33
2023-07-10T17:47:47.818Z,2.40
2023-07-10T17:50:16.788Z,2.27
2023-07-10T17:52:47.116Z,1.87
2023-07-10T17:55:19.816Z,2.40
2023-07-10T17:57:50.174Z,1.90
2023-07-10T18:00:19.580Z,2.20
2023-07-10T18:02:47.681Z,2.37
2023-07-10T18:05:17.057Z,2.10
2023-07-10T18:07:44.161Z,2.40
2023-07-10T18:10:11.898Z,2.47
2023-07-10T18:12:39.823Z,1.60
2023-07-10T18:15:15.404Z,2.70
2023-07-10T18:17:44.613Z,2.67
2023-07-10T18:20:12.903Z,2.83
2023-07-10T18:22:42.477Z,2.40
2023-07-10T18:25:17.696Z,2.47
2023-07-10T18:27:46.634Z,2.17
2023-07-10T18:30:17.015Z,2.07
2023-07-10T18:32:44.380Z,2.17
2023-07-10T18:35:16.429Z,2.50
2023-07-10T18:37:43.456Z,2.27
2023-07-10T18:40:12.516Z,2.67
2023-07-10T18:42:39.817Z,2.13
2023-07-10T18:45:17.459Z,2.40
2023-07-10T18:47:44.494Z,2.20
2023-07-10T18:50:15.972Z,2.10
2023-07-10T18:52:43.836Z,2.37
2023-07-10T18:55:16.792Z,2.40
2023-07-10T18:57:43.914Z,2.67
2023-07-10T19:00:20.660Z,1.77
2023-07-10T19:02:47.838Z,2.63
2023-07-10T19:05:15.474Z,2.33
2023-07-10T19:07:42.792Z,2.60
2023-07-10T19:10:16.814Z,2.77
2023-07-10T19:12:43.841Z,2.67
2023-07-10T19:15:12.067Z,2.13
2023-07-10T19:17:42.352Z,2.50
2023-07-10T19:20:20.145Z,2.40
2023-07-10T19:22:47.948Z,2.47
2023-07-10T19:25:16.383Z,2.47
2023-07-10T19:27:43.422Z,2.57
2023-07-10T19:30:17.752Z,2.57
2023-07-10T19:32:46.386Z,2.40
2023-07-10T19:35:18.168Z,2.80
2023-07-10T19:37:45.495Z,2.40
2023-07-10T19:40:21.120Z,2.33
2023-07-10T19:42:48.689Z,2.30
2023-07-10T19:45:16.463Z,2.40
2023-07-10T19:47:45.241Z,2.40
2023-07-10T19:50:18.557Z,2.37
2023-07-10T19:52:45.647Z,2.90
2023-07-10T19:55:14.338Z,2.47
2023-07-10T19:57:41.846Z,2.63
2023-07-10T20:00:20.103Z,2.40
2023-07-10T20:02:50.418Z,2.50
2023-07-10T20:05:17.504Z,2.43
2023-07-10T20:07:44.804Z,3.00
2023-07-10T20:10:17.256Z,2.73
2023-07-10T20:12:44.414Z,2.83
2023-07-10T20:15:15.653Z,2.27
2023-07-10T20:17:46.497Z,2.80
2023-07-10T20:20:21.889Z,2.70
2023-07-10T20:22:49.831Z,3.33
2023-07-10T20:25:16.937Z,2.90
2023-07-10T20:27:44.592Z,3.80
2023-07-10T20:30:17.657Z,3.37
2023-07-10T20:32:46.201Z,3.40
2023-07-10T20:35:16.561Z,3.40
2023-07-10T20:37:46.331Z,2.70
2023-07-10T20:40:15.183Z,3.93
2023-07-10T20:42:42.269Z,3.50
2023-07-10T20:45:14.860Z,3.43
2023-07-10T20:47:49.272Z,3.10
2023-07-10T20:50:17.834Z,3.43
2023-07-10T20:52:48.611Z,3.10
2023-07-10T20:55:15.823Z,3.00
2023-07-10T20:57:42.996Z,3.17
2023-07-10T21:00:16.440Z,2.67
2023-07-10T21:02:43.574Z,3.27
2023-07-10T21:05:10.714Z,3.00
2023-07-10T21:07:37.936Z,3.50
2023-07-10T21:10:11.288Z,3.77
2023-07-10T21:12:38.325Z,3.10
2023-07-10T21:15:06.831Z,3.30
2023-07-10T21:17:34.930Z,3.07
2023-07-10T21:20:02.789Z,3.27
2023-07-10T21:22:29.738Z,3.23
2023-07-10T21:24:56.645Z,2.67
2023-07-10T21:27:28.871Z,3.37
2023-07-10T21:30:01.390Z,4.07
2023-07-10T21:32:29.978Z,3.87
2023-07-10T21:34:57.807Z,3.97
2023-07-10T21:37:24.770Z,3.67
2023-07-10T21:39:52.224Z,3.10
2023-07-10T21:42:22.308Z,3.30
2023-07-10T21:44:53.113Z,3.37
2023-07-10T21:47:20.213Z,3.17
2023-07-10T21:49:47.151Z,3.30
2023-07-10T21:52:14.157Z,3.33
2023-07-10T21:54:41.273Z,3.30
2023-07-10T21:57:18.699Z,3.57
2023-07-10T21:59:45.794Z,4.87
2023-07-10T22:02:14.068Z,7.47
2023-07-10T22:04:41.006Z,4.20
2023-07-10T22:07:07.920Z,3.70
2023-07-10T22:09:34.914Z,3.90
2023-07-10T22:12:01.967Z,3.20
2023-07-10T22:14:28.880Z,2.67
2023-07-10T22:17:09.892Z,2.97
2023-07-10T22:19:43.326Z,2.97
2023-07-10T22:22:11.926Z,3.40
2023-07-10T22:24:38.898Z,3.27
2023-07-10T22:27:10.574Z,2.80
2023-07-10T22:29:39.241Z,3.10
2023-07-10T22:32:09.039Z,3.30
2023-07-10T22:34:35.987Z,2.90
2023-07-10T22:37:04.928Z,3.20
2023-07-10T22:39:31.878Z,2.80
2023-07-10T22:41:58.953Z,2.90
2023-07-10T22:44:27.184Z,3.20
2023-07-10T22:46:54.181Z,3.27
2023-07-10T22:49:21.129Z,3.73
2023-07-10T22:51:48.057Z,3.37
2023-07-10T22:54:16.302Z,3.70
2023-07-10T22:56:44.726Z,3.57
2023-07-10T22:59:17.297Z,3.90
2023-07-10T23:01:44.688Z,4.33
2023-07-10T23:04:12.581Z,3.70
2023-07-10T23:06:39.707Z,3.30
2023-07-10T23:09:09.009Z,3.23
2023-07-10T23:11:37.336Z,3.50
2023-07-10T23:14:04.430Z,3.53
2023-07-10T23:16:31.490Z,3.80
2023-07-10T23:19:00.564Z,3.50
2023-07-10T23:21:29.373Z,3.60
2023-07-10T23:23:56.570Z,3.40
2023-07-10T23:26:25.542Z,3.83
2023-07-10T23:28:54.074Z,3.77
2023-07-10T23:31:25.364Z,3.50
2023-07-10T23:33:53.241Z,3.40
2023-07-10T23:36:22.631Z,3.40
2023-07-10T23:38:50.122Z,3.40
2023-07-10T23:41:17.310Z,3.60
2023-07-10T23:43:45.470Z,3.40
2023-07-10T23:46:13.950Z,3.20
2023-07-10T23:48:43.391Z,3.30
2023-07-10T23:51:11.310Z,3.07
2023-07-10T23:53:38.512Z,3.00
2023-07-10T23:56:06.181Z,3.20
2023-07-10T23:58:36.499Z,3.27
